createdAt,value
2022-12-03T00:00:16.722Z,21.18
2022-12-03T00:02:43.825Z,21.23
2022-12-03T00:05:11.049Z,21.29
2022-12-03T00:07:37.959Z,21.32
2022-12-03T00:10:05.641Z,21.35
2022-12-03T00:12:32.625Z,21.39
2022-12-03T00:14:59.520Z,21.43
2022-12-03T00:17:26.527Z,21.46
2022-12-03T00:19:53.437Z,21.50
2022-12-03T00:22:20.481Z,21.52
2022-12-03T00:24:47.431Z,21.53
2022-12-03T00:27:14.251Z,21.57
2022-12-03T00:29:41.122Z,21.59
2022-12-03T00:32:08.090Z,21.61
2022-12-03T00:34:35.069Z,21.62
2022-12-03T00:37:02.371Z,21.64
2022-12-03T00:39:29.195Z,21.65
2022-12-03T00:41:56.017Z,21.67
2022-12-03T00:44:22.772Z,21.67
2022-12-03T00:46:49.707Z,21.69
2022-12-03T00:49:16.598Z,21.69
2022-12-03T00:51:43.519Z,21.71
2022-12-03T00:54:10.480Z,21.72
2022-12-03T00:56:37.352Z,21.72
2022-12-03T00:59:04.251Z,21.72
2022-12-03T01:01:31.265Z,21.72
2022-12-03T01:03:58.120Z,21.69
2022-12-03T01:06:24.960Z,21.68
2022-12-03T01:08:51.753Z,21.65
2022-12-03T01:11:21.817Z,21.60
2022-12-03T01:13:48.641Z,21.57
2022-12-03T01:16:15.646Z,21.54
2022-12-03T01:18:42.640Z,21.48
2022-12-03T01:21:09.520Z,21.43
2022-12-03T01:23:36.318Z,21.39
2022-12-03T01:26:03.128Z,21.34
2022-12-03T01:28:29.992Z,21.31
2022-12-03T01:31:00.145Z,21.28
2022-12-03T01:33:27.119Z,21.27
2022-12-03T01:35:54.000Z,21.23
2022-12-03T01:38:21.072Z,21.23
2022-12-03T01:40:50.227Z,21.22
2022-12-03T01:43:17.149Z,21.18
2022-12-03T01:45:44.022Z,21.18
2022-12-03T01:48:14.088Z,21.16
2022-12-03T01:50:40.912Z,21.14
2022-12-03T01:53:10.406Z,21.12
2022-12-03T01:55:37.838Z,21.12
2022-12-03T01:58:04.712Z,21.11
2022-12-03T02:00:31.970Z,21.08
2022-12-03T02:03:00.752Z,21.08
2022-12-03T02:05:29.322Z,21.06
2022-12-03T02:07:56.871Z,21.03
2022-12-03T02:10:25.777Z,21.00
2022-12-03T02:12:55.706Z,20.98
2022-12-03T02:15:22.632Z,20.96
2022-12-03T02:17:49.596Z,20.93
2022-12-03T02:20:16.725Z,20.91
2022-12-03T02:22:46.712Z,20.88
2022-12-03T02:25:14.977Z,20.86
2022-12-03T02:27:42.161Z,20.84
2022-12-03T02:30:09.505Z,20.81
2022-12-03T02:32:37.113Z,20.79
2022-12-03T02:35:04.079Z,20.77
2022-12-03T02:37:33.049Z,20.75
2022-12-03T02:40:01.773Z,20.74
2022-12-03T02:42:32.404Z,20.71
2022-12-03T02:45:05.511Z,20.68
2022-12-03T02:47:34.247Z,20.66
2022-12-03T02:50:02.551Z,20.65
2022-12-03T02:52:29.443Z,20.64
2022-12-03T02:54:56.462Z,20.63
2022-12-03T02:57:25.231Z,20.61
2022-12-03T02:59:52.298Z,20.59
2022-12-03T03:02:19.555Z,20.57
2022-12-03T03:04:46.707Z,20.55
2022-12-03T03:07:14.337Z,20.54
2022-12-03T03:09:41.672Z,20.53
2022-12-03T03:12:09.555Z,20.52
2022-12-03T03:14:36.641Z,20.53
2022-12-03T03:17:03.752Z,20.48
2022-12-03T03:19:30.955Z,20.47
2022-12-03T03:22:05.584Z,20.45
2022-12-03T03:24:32.538Z,20.43
2022-12-03T03:26:59.420Z,20.41
2022-12-03T03:29:26.448Z,20.39
2022-12-03T03:31:53.361Z,20.37
2022-12-03T03:34:20.395Z,20.35
2022-12-03T03:36:47.369Z,20.34
2022-12-03T03:39:14.251Z,20.32
2022-12-03T03:41:41.512Z,20.30
2022-12-03T03:44:09.042Z,20.29
2022-12-03T03:46:37.354Z,20.28
2022-12-03T03:49:05.507Z,20.25
2022-12-03T03:51:33.170Z,20.23
2022-12-03T03:54:00.315Z,20.20
2022-12-03T03:56:27.433Z,20.19
2022-12-03T03:58:55.596Z,20.18
2022-12-03T04:01:24.016Z,20.16
2022-12-03T04:03:51.115Z,20.13
2022-12-03T04:06:18.004Z,20.13
2022-12-03T04:08:44.956Z,20.10
2022-12-03T04:11:14.872Z,20.11
2022-12-03T04:13:41.765Z,20.09
2022-12-03T04:16:08.667Z,20.07
2022-12-03T04:18:38.697Z,20.05
2022-12-03T04:21:08.808Z,20.04
2022-12-03T04:23:35.677Z,20.02
2022-12-03T04:26:05.679Z,19.99
2022-12-03T04:28:35.592Z,19.98
2022-12-03T04:31:22.374Z,19.96
2022-12-03T04:33:52.411Z,19.93
2022-12-03T04:36:19.227Z,19.91
2022-12-03T04:38:46.072Z,19.90
2022-12-03T04:41:12.960Z,19.90
2022-12-03T04:43:59.680Z,19.90
2022-12-03T04:46:26.528Z,19.88
2022-12-03T04:48:53.383Z,19.86
2022-12-03T04:51:20.228Z,19.84
2022-12-03T04:53:47.198Z,19.83
2022-12-03T04:56:14.266Z,19.80
2022-12-03T04:58:41.125Z,19.79
2022-12-03T05:01:07.963Z,19.78
2022-12-03T05:03:34.987Z,19.77
2022-12-03T05:06:01.757Z,19.73
2022-12-03T05:08:28.654Z,19.75
2022-12-03T05:10:55.522Z,19.73
2022-12-03T05:13:22.370Z,19.72
2022-12-03T05:15:49.266Z,19.70
2022-12-03T05:18:16.175Z,19.69
2022-12-03T05:20:46.939Z,19.68
2022-12-03T05:23:18.484Z,19.67
2022-12-03T05:25:45.370Z,19.64
2022-12-03T05:28:12.319Z,19.63
2022-12-03T05:30:39.347Z,19.61
2022-12-03T05:33:06.241Z,19.60
2022-12-03T05:35:33.513Z,19.61
2022-12-03T05:38:00.303Z,19.58
2022-12-03T05:40:27.117Z,19.57
2022-12-03T05:42:54.012Z,19.56
2022-12-03T05:45:21.756Z,19.54
2022-12-03T05:47:48.721Z,19.52
2022-12-03T05:50:15.757Z,19.51
2022-12-03T05:52:42.841Z,19.51
2022-12-03T05:55:10.806Z,19.51
2022-12-03T05:57:38.390Z,19.49
2022-12-03T06:00:06.010Z,19.47
2022-12-03T06:02:32.977Z,19.47
2022-12-03T06:05:00.002Z,19.44
2022-12-03T06:07:27.032Z,19.43
2022-12-03T06:09:53.995Z,19.42
2022-12-03T06:12:20.794Z,19.42
2022-12-03T06:14:47.654Z,19.42
2022-12-03T06:17:14.563Z,19.42
2022-12-03T06:19:41.509Z,19.39
2022-12-03T06:22:08.404Z,19.39
2022-12-03T06:24:35.276Z,19.38
2022-12-03T06:27:02.233Z,19.36
2022-12-03T06:29:29.057Z,19.35
2022-12-03T06:31:56.079Z,19.35
2022-12-03T06:34:22.891Z,19.34
2022-12-03T06:36:50.921Z,19.35
2022-12-03T06:39:18.400Z,19.32
2022-12-03T06:41:45.402Z,19.32
2022-12-03T06:44:12.320Z,19.31
2022-12-03T06:46:39.190Z,19.30
2022-12-03T06:49:06.099Z,19.27
2022-12-03T06:51:32.974Z,19.28
2022-12-03T06:53:59.812Z,19.35
2022-12-03T06:56:32.834Z,19.43
2022-12-03T06:59:02.077Z,19.52
2022-12-03T07:01:29.056Z,19.61
2022-12-03T07:03:55.919Z,19.65
2022-12-03T07:06:22.799Z,19.67
2022-12-03T07:08:49.839Z,19.71
2022-12-03T07:11:19.748Z,19.76
2022-12-03T07:13:46.638Z,19.79
2022-12-03T07:16:13.553Z,19.82
2022-12-03T07:18:40.471Z,19.87
2022-12-03T07:21:07.335Z,19.89
2022-12-03T07:23:34.249Z,19.93
2022-12-03T07:26:01.084Z,19.98
2022-12-03T07:28:27.921Z,20.02
2022-12-03T07:30:54.845Z,20.06
2022-12-03T07:33:21.841Z,20.11
2022-12-03T07:35:48.911Z,20.16
2022-12-03T07:38:15.914Z,20.20
2022-12-03T07:40:42.797Z,20.24
2022-12-03T07:43:09.674Z,20.29
2022-12-03T07:45:36.556Z,20.33
2022-12-03T07:48:03.457Z,20.37
2022-12-03T07:50:30.272Z,20.42
2022-12-03T07:52:57.054Z,20.47
2022-12-03T07:55:25.478Z,20.52
2022-12-03T07:57:52.716Z,20.56
2022-12-03T08:00:20.311Z,20.62
2022-12-03T08:02:47.271Z,20.66
2022-12-03T08:05:14.611Z,20.70
2022-12-03T08:07:41.727Z,20.75
2022-12-03T08:10:09.008Z,20.79
2022-12-03T08:12:41.424Z,20.83
2022-12-03T08:15:11.013Z,20.89
2022-12-03T08:17:40.601Z,20.94
2022-12-03T08:20:10.606Z,20.96
2022-12-03T08:22:37.513Z,21.02
2022-12-03T08:25:06.964Z,21.06
2022-12-03T08:27:33.928Z,21.08
2022-12-03T08:30:03.859Z,21.12
2022-12-03T08:32:31.524Z,21.15
2022-12-03T08:34:58.603Z,21.18
2022-12-03T08:37:25.532Z,21.21
2022-12-03T08:39:54.868Z,21.24
2022-12-03T08:42:26.943Z,21.27
2022-12-03T08:44:56.235Z,21.28
2022-12-03T08:47:24.371Z,21.31
2022-12-03T08:49:54.464Z,21.33
2022-12-03T08:52:22.308Z,21.35
2022-12-03T08:54:52.940Z,21.35
2022-12-03T08:57:21.451Z,21.39
2022-12-03T08:59:48.405Z,21.39
2022-12-03T09:02:21.975Z,21.40
2022-12-03T09:04:49.173Z,21.41
2022-12-03T09:07:16.148Z,21.43
2022-12-03T09:09:43.055Z,21.44
2022-12-03T09:12:10.144Z,21.44
2022-12-03T09:14:37.033Z,21.46
2022-12-03T09:17:04.109Z,21.46
2022-12-03T09:19:32.160Z,21.46
2022-12-03T09:21:59.025Z,21.45
2022-12-03T09:24:25.963Z,21.44
2022-12-03T09:26:53.003Z,21.42
2022-12-03T09:29:20.068Z,21.21
2022-12-03T09:31:47.283Z,21.07
2022-12-03T09:34:14.258Z,21.10
2022-12-03T09:36:41.195Z,21.18
2022-12-03T09:39:08.074Z,21.16
2022-12-03T09:41:35.125Z,21.18
2022-12-03T09:44:04.461Z,21.16
2022-12-03T09:46:32.989Z,21.15
2022-12-03T09:49:00.787Z,21.14
2022-12-03T09:51:30.587Z,21.13
2022-12-03T09:53:59.740Z,21.11
2022-12-03T09:56:26.933Z,21.10
2022-12-03T09:58:54.028Z,21.05
2022-12-03T10:01:21.100Z,21.01
2022-12-03T10:03:51.242Z,20.85
2022-12-03T10:06:19.438Z,20.73
2022-12-03T10:08:48.755Z,20.67
2022-12-03T10:11:16.455Z,20.68
2022-12-03T10:13:43.907Z,20.73
2022-12-03T10:16:12.913Z,20.76
2022-12-03T10:18:42.326Z,20.80
2022-12-03T10:21:17.397Z,20.84
2022-12-03T10:23:44.376Z,20.85
2022-12-03T10:26:11.345Z,20.85
2022-12-03T10:28:40.059Z,20.87
2022-12-03T10:31:08.362Z,20.91
2022-12-03T10:33:36.313Z,20.92
2022-12-03T10:36:06.187Z,20.92
2022-12-03T10:38:33.033Z,20.93
2022-12-03T10:41:00.298Z,20.93
2022-12-03T10:43:27.295Z,20.95
2022-12-03T10:46:03.363Z,20.94
2022-12-03T10:48:30.878Z,20.96
2022-12-03T10:50:58.154Z,20.97
2022-12-03T10:53:28.871Z,21.00
2022-12-03T10:55:58.867Z,21.01
2022-12-03T10:58:28.396Z,21.03
2022-12-03T11:00:56.710Z,21.06
2022-12-03T11:03:25.994Z,21.09
2022-12-03T11:05:53.936Z,21.11
2022-12-03T11:08:23.512Z,21.13
2022-12-03T11:10:53.380Z,21.15
2022-12-03T11:13:23.517Z,21.18
2022-12-03T11:15:50.411Z,21.23
2022-12-03T11:18:20.313Z,21.27
2022-12-03T11:20:47.661Z,21.30
2022-12-03T11:23:14.474Z,21.33
2022-12-03T11:25:44.432Z,21.33
2022-12-03T11:28:13.940Z,21.38
2022-12-03T11:30:43.986Z,21.40
2022-12-03T11:33:21.909Z,21.45
2022-12-03T11:35:51.873Z,21.51
2022-12-03T11:38:38.698Z,21.52
2022-12-03T11:41:08.656Z,21.53
2022-12-03T11:43:38.673Z,21.58
2022-12-03T11:46:09.610Z,21.56
2022-12-03T11:48:43.807Z,21.59
2022-12-03T11:51:14.345Z,21.61
2022-12-03T11:53:41.500Z,21.63
2022-12-03T11:56:09.533Z,21.64
2022-12-03T11:58:38.698Z,21.66
2022-12-03T12:01:06.976Z,21.69
2022-12-03T12:03:35.347Z,21.70
2022-12-03T12:06:05.457Z,21.73
2022-12-03T12:08:33.647Z,21.75
2022-12-03T12:11:01.122Z,21.76
2022-12-03T12:13:29.148Z,21.78
2022-12-03T12:15:56.129Z,21.80
2022-12-03T12:18:26.666Z,21.82
2022-12-03T12:20:53.737Z,21.82
2022-12-03T12:23:22.371Z,21.82
2022-12-03T12:25:53.999Z,21.83
2022-12-03T12:28:21.326Z,21.82
2022-12-03T12:30:48.528Z,21.79
2022-12-03T12:33:20.124Z,21.74
2022-12-03T12:35:47.176Z,21.71
2022-12-03T12:38:15.694Z,21.67
2022-12-03T12:40:45.298Z,21.65
2022-12-03T12:43:17.640Z,21.62
2022-12-03T12:45:47.976Z,21.62
2022-12-03T12:48:15.555Z,21.64
2022-12-03T12:50:44.289Z,21.64
2022-12-03T12:53:11.632Z,21.71
2022-12-03T12:55:40.045Z,21.75
2022-12-03T12:58:12.108Z,21.78
2022-12-03T13:00:40.303Z,21.82
2022-12-03T13:03:07.554Z,21.85
2022-12-03T13:05:37.591Z,21.88
2022-12-03T13:08:14.383Z,21.91
2022-12-03T13:10:42.253Z,21.92
2022-12-03T13:13:12.252Z,21.94
2022-12-03T13:15:42.957Z,21.96
2022-12-03T13:18:12.953Z,21.97
2022-12-03T13:20:40.039Z,22.01
2022-12-03T13:23:22.428Z,22.03
2022-12-03T13:26:06.322Z,22.04
2022-12-03T13:28:41.312Z,22.06
2022-12-03T13:31:11.394Z,22.04
2022-12-03T13:33:39.240Z,22.05
2022-12-03T13:36:11.344Z,22.06
2022-12-03T13:38:38.156Z,22.07
2022-12-03T13:41:05.356Z,22.05
2022-12-03T13:43:33.017Z,22.06
2022-12-03T13:46:00.307Z,22.06
2022-12-03T13:48:27.632Z,22.05
2022-12-03T13:50:54.733Z,22.05
2022-12-03T13:53:22.621Z,22.06
2022-12-03T13:55:51.124Z,22.06
2022-12-03T13:58:18.187Z,22.04
2022-12-03T14:00:45.350Z,22.03
2022-12-03T14:03:12.325Z,22.02
2022-12-03T14:05:39.332Z,21.99
2022-12-03T14:08:06.580Z,21.99
2022-12-03T14:10:33.987Z,21.97
2022-12-03T14:13:00.945Z,21.97
2022-12-03T14:15:27.844Z,21.94
2022-12-03T14:17:54.860Z,21.93
2022-12-03T14:20:21.816Z,21.89
2022-12-03T14:22:48.715Z,21.88
2022-12-03T14:25:15.773Z,21.80
2022-12-03T14:27:42.737Z,21.76
2022-12-03T14:30:10.434Z,21.71
2022-12-03T14:32:37.335Z,21.70
2022-12-03T14:35:09.641Z,21.68
2022-12-03T14:37:36.962Z,21.64
2022-12-03T14:40:04.197Z,21.59
2022-12-03T14:42:31.101Z,21.56
2022-12-03T14:44:58.141Z,21.58
2022-12-03T14:47:25.020Z,21.56
2022-12-03T14:49:53.472Z,21.54
2022-12-03T14:52:20.569Z,21.53
2022-12-03T14:54:47.564Z,21.52
2022-12-03T14:57:15.435Z,21.49
2022-12-03T14:59:42.729Z,21.47
2022-12-03T15:02:10.064Z,21.46
2022-12-03T15:04:37.489Z,21.45
2022-12-03T15:07:04.419Z,21.42
2022-12-03T15:09:31.427Z,21.40
2022-12-03T15:11:58.335Z,21.37
2022-12-03T15:14:25.255Z,21.33
2022-12-03T15:16:52.309Z,21.30
2022-12-03T15:19:19.219Z,21.25
2022-12-03T15:21:46.294Z,21.26
2022-12-03T15:24:13.307Z,21.21
2022-12-03T15:26:40.295Z,21.18
2022-12-03T15:29:07.378Z,21.14
2022-12-03T15:31:34.463Z,21.10
2022-12-03T15:34:01.679Z,21.06
2022-12-03T15:36:28.531Z,21.02
2022-12-03T15:38:55.680Z,20.98
2022-12-03T15:41:24.370Z,20.95
2022-12-03T15:43:52.810Z,20.90
2022-12-03T15:46:20.928Z,20.87
2022-12-03T15:48:48.150Z,20.83
2022-12-03T15:51:15.139Z,20.81
2022-12-03T15:53:42.082Z,20.76
2022-12-03T15:56:09.040Z,20.74
2022-12-03T15:58:36.067Z,20.74
2022-12-03T16:01:03.217Z,20.70
2022-12-03T16:03:30.342Z,20.69
2022-12-03T16:05:57.254Z,20.66
2022-12-03T16:08:24.141Z,20.60
2022-12-03T16:10:51.048Z,20.60
2022-12-03T16:13:17.892Z,20.59
2022-12-03T16:15:45.189Z,20.56
2022-12-03T16:18:12.097Z,20.55
2022-12-03T16:20:39.034Z,20.53
2022-12-03T16:23:05.954Z,20.53
2022-12-03T16:25:33.113Z,20.49
2022-12-03T16:28:00.075Z,20.49
2022-12-03T16:30:27.079Z,20.46
2022-12-03T16:32:54.208Z,20.45
2022-12-03T16:35:21.468Z,20.43
2022-12-03T16:37:48.434Z,20.42
2022-12-03T16:40:15.388Z,20.38
2022-12-03T16:42:42.352Z,20.37
2022-12-03T16:45:09.988Z,20.38
2022-12-03T16:47:37.231Z,20.35
2022-12-03T16:50:05.826Z,20.31
2022-12-03T16:52:32.731Z,20.29
2022-12-03T16:54:59.671Z,20.30
2022-12-03T16:57:31.932Z,20.27
2022-12-03T17:00:02.861Z,20.26
2022-12-03T17:02:29.854Z,20.23
2022-12-03T17:04:56.831Z,20.23
2022-12-03T17:07:23.753Z,20.20
2022-12-03T17:09:50.894Z,20.20
2022-12-03T17:12:18.032Z,20.15
2022-12-03T17:14:45.162Z,20.15
2022-12-03T17:17:12.041Z,20.10
2022-12-03T17:19:39.093Z,20.10
2022-12-03T17:22:06.020Z,20.08
2022-12-03T17:24:32.988Z,20.09
2022-12-03T17:26:59.861Z,20.08
2022-12-03T17:29:26.783Z,20.06
2022-12-03T17:31:53.772Z,20.04
2022-12-03T17:34:20.807Z,20.02
2022-12-03T17:36:57.841Z,20.01
2022-12-03T17:39:24.814Z,19.99
2022-12-03T17:41:51.788Z,19.97
2022-12-03T17:44:21.167Z,19.95
2022-12-03T17:46:48.404Z,19.94
2022-12-03T17:49:15.809Z,19.92
2022-12-03T17:51:42.702Z,19.91
2022-12-03T17:54:09.539Z,19.90
2022-12-03T17:56:36.528Z,19.87
2022-12-03T17:59:03.490Z,19.87
2022-12-03T18:01:30.419Z,19.82
2022-12-03T18:03:57.502Z,19.81
2022-12-03T18:06:26.515Z,19.80
2022-12-03T18:08:53.439Z,19.77
2022-12-03T18:11:20.379Z,19.76
2022-12-03T18:13:47.407Z,19.75
2022-12-03T18:16:14.849Z,19.72
2022-12-03T18:18:41.891Z,19.71
2022-12-03T18:21:08.827Z,19.69
2022-12-03T18:23:36.016Z,19.69
2022-12-03T18:26:03.730Z,19.66
2022-12-03T18:28:31.948Z,19.66
2022-12-03T18:30:59.161Z,19.62
2022-12-03T18:33:26.459Z,19.62
2022-12-03T18:35:54.886Z,19.62
2022-12-03T18:38:25.478Z,19.59
2022-12-03T18:40:53.644Z,19.59
2022-12-03T18:43:20.588Z,19.58
2022-12-03T18:45:47.786Z,19.54
2022-12-03T18:48:15.921Z,19.53
2022-12-03T18:50:43.337Z,19.51
2022-12-03T18:53:13.648Z,19.51
2022-12-03T18:55:41.456Z,19.47
2022-12-03T18:58:08.579Z,19.48
2022-12-03T19:00:36.168Z,19.44
2022-12-03T19:03:04.416Z,19.45
2022-12-03T19:05:33.343Z,19.45
2022-12-03T19:08:00.493Z,19.42
2022-12-03T19:10:27.943Z,19.41
2022-12-03T19:12:55.534Z,19.38
2022-12-03T19:15:23.496Z,19.36
2022-12-03T19:17:50.587Z,19.35
2022-12-03T19:20:17.792Z,19.34
2022-12-03T19:22:44.761Z,19.34
2022-12-03T19:25:11.711Z,19.31
2022-12-03T19:27:38.677Z,19.30
2022-12-03T19:30:06.668Z,19.30
2022-12-03T19:32:34.494Z,19.29
2022-12-03T19:35:05.435Z,19.30
2022-12-03T19:37:34.146Z,19.32
2022-12-03T19:40:01.457Z,19.32
2022-12-03T19:42:28.609Z,19.36
2022-12-03T19:44:55.558Z,19.40
2022-12-03T19:47:24.885Z,19.46
2022-12-03T19:49:53.576Z,19.53
2022-12-03T19:52:20.930Z,19.61
2022-12-03T19:54:47.968Z,19.67
2022-12-03T19:57:21.110Z,19.72
2022-12-03T19:59:50.618Z,19.76
2022-12-03T20:02:17.813Z,19.80
2022-12-03T20:04:44.984Z,19.83
2022-12-03T20:07:11.915Z,19.88
2022-12-03T20:09:38.832Z,19.87
2022-12-03T20:12:05.842Z,19.88
2022-12-03T20:14:32.747Z,19.91
2022-12-03T20:16:59.755Z,19.94
2022-12-03T20:19:26.821Z,19.98
2022-12-03T20:21:57.621Z,20.03
2022-12-03T20:24:27.907Z,20.07
2022-12-03T20:26:54.786Z,20.12
2022-12-03T20:29:21.814Z,20.16
2022-12-03T20:31:48.907Z,20.20
2022-12-03T20:34:16.209Z,20.24
2022-12-03T20:36:44.715Z,20.29
2022-12-03T20:39:11.834Z,20.34
2022-12-03T20:41:38.840Z,20.38
2022-12-03T20:44:07.882Z,20.44
2022-12-03T20:46:35.244Z,20.47
2022-12-03T20:49:02.690Z,20.52
2022-12-03T20:51:30.646Z,20.55
2022-12-03T20:53:58.433Z,20.60
2022-12-03T20:56:28.061Z,20.64
2022-12-03T20:58:55.319Z,20.68
2022-12-03T21:01:25.043Z,20.73
2022-12-03T21:03:52.777Z,20.78
2022-12-03T21:06:19.790Z,20.81
2022-12-03T21:08:47.050Z,20.85
2022-12-03T21:11:15.779Z,20.91
2022-12-03T21:13:44.348Z,20.95
2022-12-03T21:16:13.186Z,20.99
2022-12-03T21:18:40.276Z,21.02
2022-12-03T21:21:07.442Z,21.07
2022-12-03T21:23:35.107Z,21.10
2022-12-03T21:26:05.088Z,21.15
2022-12-03T21:28:32.216Z,21.17
2022-12-03T21:31:01.639Z,21.20
2022-12-03T21:33:28.968Z,21.24
2022-12-03T21:35:56.409Z,21.27
2022-12-03T21:38:23.827Z,21.30
2022-12-03T21:40:51.083Z,21.33
2022-12-03T21:43:18.132Z,21.35
2022-12-03T21:45:45.162Z,21.38
2022-12-03T21:48:12.424Z,21.41
2022-12-03T21:50:39.622Z,21.42
2022-12-03T21:53:06.571Z,21.45
2022-12-03T21:55:35.091Z,21.47
2022-12-03T21:58:02.190Z,21.51
2022-12-03T22:00:29.227Z,21.53
2022-12-03T22:02:56.334Z,21.57
2022-12-03T22:05:23.339Z,21.59
2022-12-03T22:07:50.421Z,21.62
2022-12-03T22:10:17.681Z,21.63
2022-12-03T22:12:44.498Z,21.67
2022-12-03T22:15:18.148Z,21.69
2022-12-03T22:17:45.992Z,21.71
2022-12-03T22:20:13.185Z,21.72
2022-12-03T22:22:40.451Z,21.77
2022-12-03T22:25:08.159Z,21.78
2022-12-03T22:27:35.088Z,21.80
2022-12-03T22:30:02.691Z,21.82
2022-12-03T22:32:29.780Z,21.83
2022-12-03T22:34:56.758Z,21.84
2022-12-03T22:37:23.691Z,21.87
2022-12-03T22:39:50.972Z,21.88
2022-12-03T22:42:17.917Z,21.91
2022-12-03T22:44:44.771Z,21.93
2022-12-03T22:47:11.777Z,21.96
2022-12-03T22:49:38.822Z,21.98
2022-12-03T22:52:05.771Z,22.00
2022-12-03T22:54:32.668Z,22.03
2022-12-03T22:56:59.771Z,22.08
2022-12-03T22:59:26.776Z,22.12
2022-12-03T23:01:53.771Z,22.10
2022-12-03T23:04:20.760Z,22.14
2022-12-03T23:06:47.637Z,22.14
2022-12-03T23:09:14.849Z,22.17
2022-12-03T23:11:44.031Z,22.19
2022-12-03T23:14:10.958Z,22.18
2022-12-03T23:16:37.998Z,22.18
2022-12-03T23:19:07.992Z,22.20
2022-12-03T23:21:35.596Z,22.20
2022-12-03T23:24:03.832Z,22.22
2022-12-03T23:26:30.814Z,22.22
2022-12-03T23:28:57.668Z,22.21
2022-12-03T23:31:26.661Z,22.19
2022-12-03T23:33:54.001Z,22.20
2022-12-03T23:36:21.657Z,22.20
2022-12-03T23:38:48.447Z,22.20
2022-12-03T23:41:16.488Z,22.18
2022-12-03T23:43:43.656Z,22.17
2022-12-03T23:46:13.312Z,22.18
2022-12-03T23:48:40.253Z,22.20
2022-12-03T23:51:08.880Z,22.21
2022-12-03T23:53:36.374Z,22.20
2022-12-03T23:56:06.278Z,22.24
2022-12-03T23:58:34.127Z,22.24
